Time;durP1;ratioP1;P1;durP2;ratioP2;P2;SDS_P1;SDS_P2;PMS_P1;PMS_P2;Temp;Humidity;BMP_temperature;BMP_pressure;BME280_temperature;BME280_humidity;BME280_pressure;Samples;Min_cycle;Max_cycle;Signal;HPM_P1;HPM_P2
2022/07/01 00:02:03;;;;;;;9.35;8.55;;;;;;;23.27;69.84;99183.95;1778731;80;21043;-69
2022/07/01 00:04:29;;;;;;;8.80;8.10;;;;;;;23.24;69.94;99191.24;1775906;79;20913;-68
2022/07/01 00:06:58;;;;;;;8.73;7.87;;;;;;;23.22;70.07;99189.34;1762405;80;21145;-69
2022/07/01 00:09:25;;;;;;;9.80;8.83;;;;;;;23.21;70.13;99193.11;1777984;80;20965;-69
2022/07/01 00:11:52;;;;;;;9.08;8.48;;;;;;;23.22;70.16;99194.77;1785631;80;20907;-70
2022/07/01 00:14:19;;;;;;;9.55;8.65;;;;;;;23.22;70.19;99202.91;1791985;80;20927;-70
2022/07/01 00:16:45;;;;;;;9.45;8.75;;;;;;;23.20;70.20;99205.59;1771218;80;21013;-70
2022/07/01 00:19:12;;;;;;;9.45;8.75;;;;;;;23.19;70.27;99201.23;1772545;80;21929;-70
2022/07/01 00:21:39;;;;;;;11.50;8.05;;;;;;;23.20;70.29;99202.31;1761846;80;21431;-70
2022/07/01 00:24:06;;;;;;;9.68;8.95;;;;;;;;;;1787928;80;21017;-69
2022/07/01 00:26:33;;;;;;;9.33;8.00;;;;;;;23.23;70.18;99190.95;1792900;80;20887;-70
2022/07/01 00:29:00;;;;;;;8.45;7.85;;;;;;;23.24;70.14;99191.24;1792961;80;20903;-70
2022/07/01 00:31:26;;;;;;;8.98;8.30;;;;;;;23.25;70.12;99189.35;1784562;79;21229;-70
2022/07/01 00:33:53;;;;;;;8.80;8.18;;;;;;;23.22;70.09;99187.98;1773761;80;20946;-70
2022/07/01 00:36:19;;;;;;;8.83;8.13;;;;;;;23.21;70.15;99187.69;1776364;80;20882;-69
2022/07/01 00:38:47;;;;;;;8.40;7.60;;;;;;;23.18;70.21;99181.95;1776148;80;21465;-69
2022/07/01 00:41:14;;;;;;;8.53;7.85;;;;;;;23.13;70.32;99184.09;1768717;79;21432;-70
2022/07/01 00:43:41;;;;;;;7.85;7.25;;;;;;;23.07;70.45;99185.11;1786346;80;21861;-70
2022/07/01 00:46:07;;;;;;;8.53;7.92;;;;;;;23.02;70.71;99184.27;1787497;80;21440;-70
2022/07/01 00:48:33;;;;;;;8.33;7.72;;;;;;;22.97;70.87;99187.73;1770802;80;21464;-69
2022/07/01 00:51:02;;;;;;;8.53;7.87;;;;;;;22.93;71.09;99184.45;1739931;80;21377;-70
2022/07/01 00:53:29;;;;;;;8.88;8.18;;;;;;;22.87;71.30;99183.58;1765602;80;20934;-69
2022/07/01 00:55:56;;;;;;;9.00;8.25;;;;;;;22.82;71.47;99179.99;1792323;80;21101;-69
2022/07/01 00:58:28;;;;;;;8.10;7.60;;;;;;;22.76;71.74;99179.13;1770700;80;21008;-70
2022/07/01 01:00:57;;;;;;;9.18;8.48;;;;;;;22.70;71.91;99178.28;1778160;80;20968;-70
2022/07/01 01:03:23;;;;;;;8.40;7.70;;;;;;;22.65;72.10;99178.76;1765388;80;20956;-69
2022/07/01 01:05:50;;;;;;;9.00;8.23;;;;;;;22.60;72.27;99175.41;1720271;81;21506;-71
2022/07/01 01:08:18;;;;;;;8.78;7.92;;;;;;;22.58;72.38;99176.20;1735453;81;21245;-69
2022/07/01 01:10:45;;;;;;;9.38;8.53;;;;;;;22.54;72.51;99169.66;1732257;81;21008;-70
2022/07/01 01:13:12;;;;;;;8.73;8.03;;;;;;;22.52;72.68;99162.86;1753050;81;20975;-69
2022/07/01 01:15:39;;;;;;;8.00;7.47;;;;;;;22.51;72.75;99172.88;1761750;81;20883;-70
2022/07/01 01:18:07;;;;;;;8.18;7.47;;;;;;;22.52;72.79;99175.89;1743433;81;20938;-70
2022/07/01 01:20:35;;;;;;;8.30;7.62;;;;;;;22.58;72.75;99172.66;1732416;81;21148;-70
2022/07/01 01:23:03;;;;;;;8.25;7.53;;;;;;;22.61;72.64;99174.88;1749200;81;20899;-70
2022/07/01 01:25:33;;;;;;;7.30;6.78;;;;;;;22.64;72.55;99180.64;1750822;81;20871;-71
2022/07/01 01:28:01;;;;;;;8.18;7.58;;;;;;;22.68;72.44;99181.76;1749896;81;20940;-70
2022/07/01 01:30:27;;;;;;;8.43;7.83;;;;;;;22.72;72.31;99186.14;1743156;81;20990;-71
2022/07/01 01:32:54;;;;;;;8.40;7.67;;;;;;;22.73;72.17;99185.87;1743350;81;21122;-69
2022/07/01 01:35:21;;;;;;;7.78;7.22;;;;;;;22.77;72.12;99182.66;1743183;81;20923;-70
2022/07/01 01:37:48;;;;;;;7.80;7.00;;;;;;;22.78;71.97;99185.13;1743697;81;20946;-70
2022/07/01 01:40:15;;;;;;;8.33;7.72;;;;;;;22.80;71.91;99188.40;1758667;81;20891;-70
2022/07/01 01:42:43;;;;;;;8.40;7.70;;;;;;;22.82;71.76;99190.84;1746285;81;20946;-70
2022/07/01 01:45:10;;;;;;;9.33;8.53;;;;;;;22.86;71.67;99197.41;1771574;81;21153;-69
2022/07/01 01:47:37;;;;;;;7.85;7.35;;;;;;;22.87;71.59;99201.20;1748728;79;20930;-71
2022/07/01 01:50:07;;;;;;;8.70;7.87;;;;;;;22.87;71.46;99194.42;1732239;81;20891;-70
2022/07/01 01:52:34;;;;;;;7.42;6.92;;;;;;;22.86;71.44;99189.27;1742496;79;20897;-70
2022/07/01 01:55:00;;;;;;;8.55;7.83;;;;;;;22.86;71.44;99194.70;1743954;81;21017;-70
2022/07/01 01:57:27;;;;;;;8.05;7.35;;;;;;;22.82;71.45;99186.23;1755172;79;21217;-71
2022/07/01 01:59:54;;;;;;;8.05;7.45;;;;;;;22.78;71.49;99185.13;1732271;81;20915;-70
2022/07/01 02:02:20;;;;;;;8.83;8.13;;;;;;;22.74;71.58;99183.98;1745034;80;20980;-69
2022/07/01 02:04:47;;;;;;;7.72;7.03;;;;;;;22.71;71.69;99187.20;1746860;81;21051;-70
2022/07/01 02:07:15;;;;;;;8.70;8.03;;;;;;;22.69;71.74;99198.31;1744321;81;21392;-70
2022/07/01 02:09:41;;;;;;;8.13;7.35;;;;;;;22.69;71.79;99201.56;1749419;81;21252;-71
2022/07/01 02:12:08;;;;;;;8.08;7.47;;;;;;;22.68;71.83;99205.37;1734253;81;20970;-70
2022/07/01 02:14:35;;;;;;;7.53;7.03;;;;;;;22.66;71.87;99204.78;1737801;81;20903;-71
2022/07/01 02:17:01;;;;;;;8.00;7.30;;;;;;;22.66;71.91;99211.55;1737784;81;20891;-70
2022/07/01 02:19:28;;;;;;;7.65;7.05;;;;;;;22.63;71.97;99210.73;1732316;81;20941;-69
2022/07/01 02:21:54;;;;;;;8.18;7.58;;;;;;;22.60;72.08;99209.85;1735005;81;21205;-70
2022/07/01 02:24:21;;;;;;;7.33;6.75;;;;;;;22.59;72.12;99214.98;1760481;81;20926;-69
2022/07/01 02:26:47;;;;;;;8.08;7.42;;;;;;;22.54;72.16;99209.50;1739948;81;21013;-69
2022/07/01 02:29:14;;;;;;;8.30;7.67;;;;;;;22.50;72.24;99214.59;1732365;81;20899;-69
2022/07/01 02:31:41;;;;;;;7.83;7.33;;;;;;;22.47;72.39;99212.95;1746162;81;20860;-70
2022/07/01 02:34:07;;;;;;;8.08;7.30;;;;;;;22.45;72.52;99217.78;1771818;81;21210;-70
2022/07/01 02:36:34;;;;;;;8.65;7.85;;;;;;;22.44;72.57;99220.23;1764619;79;20840;-70
2022/07/01 02:39:00;;;;;;;8.73;7.10;;;;;;;22.43;72.63;99221.29;1748556;81;20938;-71
2022/07/01 02:41:27;;;;;;;8.45;7.75;;;;;;;22.41;72.70;99222.09;1761703;81;21051;-69
2022/07/01 02:43:53;;;;;;;7.90;7.30;;;;;;;22.39;72.76;99222.35;1753124;79;20932;-70
2022/07/01 02:46:20;;;;;;;8.13;7.22;;;;;;;22.41;72.79;99219.38;1754290;81;21257;-70
2022/07/01 02:48:46;;;;;;;8.08;7.47;;;;;;;22.42;72.80;99226.45;1732257;79;21021;-69
2022/07/01 02:51:13;;;;;;;7.70;7.10;;;;;;;22.42;72.81;99221.81;1760579;81;20872;-71
2022/07/01 02:53:39;;;;;;;8.00;7.33;;;;;;;22.45;72.80;99220.49;1759771;79;20891;-71
2022/07/01 02:56:06;;;;;;;7.95;7.25;;;;;;;22.48;72.81;99222.70;1752725;81;21005;-69
2022/07/01 02:58:32;;;;;;;7.58;6.97;;;;;;;22.53;72.73;99221.41;1736546;79;21154;-70
2022/07/01 03:00:59;;;;;;;7.97;7.28;;;;;;;22.59;72.62;99227.17;1750626;81;20907;-69
2022/07/01 03:03:25;;;;;;;8.10;7.50;;;;;;;22.64;72.49;99231.33;1766976;79;20919;-69
2022/07/01 03:05:51;;;;;;;8.03;7.17;;;;;;;22.70;72.27;99241.17;1773569;80;21521;-70
2022/07/01 03:08:19;;;;;;;8.33;7.67;;;;;;;22.73;72.18;99244.17;1773946;79;20940;-69
2022/07/01 03:10:46;;;;;;;7.60;7.05;;;;;;;22.78;72.02;99248.86;1773826;81;21174;-70
2022/07/01 03:13:13;;;;;;;7.42;6.92;;;;;;;22.84;71.91;99246.45;1771730;79;20868;-70
2022/07/01 03:15:40;;;;;;;8.00;7.22;;;;;;;22.94;71.74;99249.83;1736458;79;20930;-71
2022/07/01 03:18:06;;;;;;;7.60;7.10;;;;;;;23.03;71.51;99253.70;1734508;81;20970;-70
2022/07/01 03:20:33;;;;;;;7.70;7.10;;;;;;;23.12;71.27;99256.26;1738212;81;20934;-70
2022/07/01 03:23:00;;;;;;;7.70;7.20;;;;;;;23.20;70.93;99256.59;1753050;81;21656;-70
2022/07/01 03:25:27;;;;;;;7.90;7.40;;;;;;;23.29;70.75;99261.84;1769057;81;21011;-70
2022/07/01 03:27:54;;;;;;;7.97;7.28;;;;;;;23.40;70.38;99263.31;1732501;81;20922;-70
2022/07/01 03:30:20;;;;;;;7.35;6.85;;;;;;;23.54;70.03;99265.89;1732512;81;20988;-69
2022/07/01 03:32:47;;;;;;;7.28;6.67;;;;;;;23.67;69.50;99267.61;1758347;80;21034;-71
2022/07/01 03:37:59;;;;;;;7.40;6.80;;;;;;;23.96;68.52;99259.40;1773200;80;20955;-70
2022/07/01 03:40:26;;;;;;;7.12;6.62;;;;;;;24.16;67.91;99254.67;1755522;81;21001;-69
2022/07/01 03:42:53;;;;;;;7.40;6.80;;;;;;;24.36;67.29;99258.84;1760947;81;20849;-71
2022/07/01 03:45:19;;;;;;;7.10;6.60;;;;;;;24.66;66.30;99255.45;1740789;81;20981;-70
2022/07/01 03:47:49;;;;;;;7.72;6.75;;;;;;;25.08;65.16;99262.12;1745140;81;21121;-71
2022/07/01 03:50:17;;;;;;;7.45;6.85;;;;;;;25.57;63.51;99257.83;1740001;80;20950;-71
2022/07/01 03:52:43;;;;;;;7.72;7.12;;;;;;;26.05;62.04;99261.84;1741361;81;20906;-71
2022/07/01 03:55:10;;;;;;;6.45;6.05;;;;;;;26.52;60.31;99256.00;1772413;79;21065;-70
2022/07/01 03:57:37;;;;;;;7.15;6.45;;;;;;;26.93;59.17;99258.03;1756426;79;20987;-70
2022/07/01 04:00:07;;;;;;;7.33;6.72;;;;;;;27.34;57.73;99249.83;1772406;81;21814;-71
2022/07/01 04:02:34;;;;;;;6.37;5.87;;;;;;;27.77;56.46;99248.66;1754959;81;20951;-71
2022/07/01 04:05:00;;;;;;;6.90;6.17;;;;;;;28.21;55.22;99245.80;1739551;80;20890;-70
2022/07/01 04:07:27;;;;;;;7.60;7.00;;;;;;;28.64;53.85;99248.30;1747102;80;21449;-68
2022/07/01 04:09:54;;;;;;;7.05;6.60;;;;;;;29.14;52.74;99245.95;1756783;80;20902;-70
2022/07/01 04:12:20;;;;;;;5.92;5.58;;;;;;;29.69;51.31;99245.64;1741228;79;21118;-70
2022/07/01 04:14:47;;;;;;;5.55;5.08;;;;;;;30.16;49.97;99242.61;1764761;80;21621;-71
2022/07/01 04:17:14;;;;;;;5.78;5.37;;;;;;;30.52;47.96;99241.36;1745812;78;20863;-69
2022/07/01 04:19:41;;;;;;;6.78;6.10;;;;;;;30.78;46.87;99248.49;1765276;80;21461;-69
2022/07/01 04:24:52;;;;;;;5.95;5.42;;;;;;;31.66;45.16;99240.95;1740308;80;21133;-69
2022/07/01 04:27:19;;;;;;;5.87;5.47;;;;;;;32.17;43.48;99244.00;1740175;80;21056;-69
2022/07/01 04:29:45;;;;;;;6.40;5.90;;;;;;;32.33;42.69;99247.95;1756685;80;20991;-69
2022/07/01 04:32:12;;;;;;;6.30;5.90;;;;;;;32.64;41.96;99251.25;1772927;79;20922;-69
2022/07/01 04:34:38;;;;;;;5.45;5.10;;;;;;;32.82;40.92;99252.91;1752532;80;20970;-70
2022/07/01 04:37:05;;;;;;;6.42;5.80;;;;;;;32.93;40.29;99252.27;1778117;79;21133;-71
2022/07/01 04:39:32;;;;;;;5.72;5.35;;;;;;;33.05;40.16;99256.36;1755015;80;20914;-69
2022/07/01 04:42:01;;;;;;;5.75;5.33;;;;;;;33.26;39.75;99258.72;1766585;80;20918;-71
2022/07/01 04:44:33;;;;;;;6.35;5.95;;;;;;;33.46;39.28;99253.92;1779094;80;20971;-70
2022/07/01 04:47:00;;;;;;;5.92;5.53;;;;;;;33.54;38.83;99253.92;1764596;78;20934;-70
2022/07/01 04:49:27;;;;;;;5.58;5.22;;;;;;;33.53;38.70;99250.09;1741035;80;21221;-70
2022/07/01 04:51:54;;;;;;;5.97;5.10;;;;;;;33.76;38.59;99250.19;1752615;80;21410;-68
2022/07/01 04:54:21;;;;;;;6.15;5.22;;;;;;;34.12;37.59;99256.13;1758123;80;21412;-72
2022/07/01 04:56:48;;;;;;;5.60;5.17;;;;;;;34.31;37.25;99257.08;1775918;80;20947;-70
2022/07/01 04:59:14;;;;;;;5.47;5.15;;;;;;;34.52;36.76;99262.09;1782002;80;20872;-71
2022/07/01 05:01:43;;;;;;;5.28;4.83;;;;;;;34.68;36.34;99263.74;1777488;79;20852;-70
2022/07/01 05:04:11;;;;;;;5.67;5.28;;;;;;;34.64;36.21;99255.91;1784325;79;20899;-70
2022/07/01 05:06:38;;;;;;;5.75;5.17;;;;;;;34.59;36.28;99256.91;1783305;80;21441;-69
2022/07/01 05:09:04;;;;;;;6.65;6.05;;;;;;;34.61;36.66;99252.42;1777462;80;21411;-70
2022/07/01 05:11:31;;;;;;;5.90;5.42;;;;;;;35.02;36.29;99248.32;1774559;80;20867;-68
2022/07/01 05:14:00;;;;;;;6.62;6.10;;;;;;;35.60;35.56;99250.16;1783094;80;20943;-70
2022/07/01 05:16:26;;;;;;;5.50;5.00;;;;;;;36.17;34.50;99242.47;1777855;79;20966;-70
2022/07/01 05:21:56;;;;;;;5.90;5.17;;;;;;;36.78;33.12;99246.08;1781326;80;20875;-69
2022/07/01 05:24:24;;;;;;;5.15;4.78;;;;;;;36.95;32.29;99243.06;1770157;80;21021;-71
2022/07/01 05:26:51;;;;;;;5.05;4.65;;;;;;;36.85;32.45;99254.03;1766784;80;21271;-70
2022/07/01 05:29:17;;;;;;;4.90;4.60;;;;;;;36.82;32.34;99247.80;1779530;80;20933;-68
2022/07/01 05:31:44;;;;;;;5.62;5.12;;;;;;;36.84;32.41;99248.85;1774087;80;20828;-71
2022/07/01 05:34:11;;;;;;;5.55;4.95;;;;;;;37.00;32.10;99243.63;1778108;80;20918;-69
2022/07/01 05:36:37;;;;;;;4.67;4.40;;;;;;;37.19;31.94;99241.63;1773596;79;21012;-68
2022/07/01 05:39:06;;;;;;;6.03;4.58;;;;;;;37.33;31.36;99241.23;1762729;80;20961;-69
2022/07/01 05:41:33;;;;;;;7.40;4.15;;;;;;;37.16;31.50;99242.32;1759002;80;20913;-69
2022/07/01 05:44:00;;;;;;;5.42;4.90;;;;;;;37.40;31.66;99255.30;1756661;80;20937;-69
2022/07/01 05:46:26;;;;;;;5.25;4.85;;;;;;;37.77;30.58;99246.25;1769516;79;21009;-69
2022/07/01 05:48:53;;;;;;;7.50;4.85;;;;;;;37.91;30.24;99246.67;1769693;80;20976;-68
2022/07/01 05:51:19;;;;;;;4.80;4.40;;;;;;;37.95;30.39;99240.63;1776064;80;21120;-69
2022/07/01 05:53:47;;;;;;;5.62;4.58;;;;;;;38.23;30.22;99244.13;1782242;79;20994;-69
2022/07/01 05:56:15;;;;;;;4.53;4.25;;;;;;;38.78;29.43;99243.95;1778359;79;20867;-70
2022/07/01 05:58:41;;;;;;;4.70;4.22;;;;;;;39.46;28.69;99248.42;1783091;79;20860;-68
2022/07/01 06:01:08;;;;;;;4.50;4.20;;;;;;;39.82;27.96;99244.95;1775142;80;20886;-69
2022/07/01 06:03:35;;;;;;;4.10;3.90;;;;;;;40.14;27.75;99245.55;1755514;80;21240;-68
2022/07/01 06:06:01;;;;;;;4.45;4.15;;;;;;;40.58;27.11;99240.56;1710726;83;21057;-69
2022/07/01 06:08:28;;;;;;;4.40;4.10;;;;;;;40.68;26.41;99241.89;1754878;81;20978;-73
2022/07/01 06:10:55;;;;;;;4.33;4.03;;;;;;;40.34;26.11;99251.27;1712851;81;20999;-70
2022/07/01 06:13:22;;;;;;;4.17;3.83;;;;;;;39.89;26.62;99258.41;1709246;82;21040;-68
2022/07/01 06:15:48;;;;;;;4.12;3.72;;;;;;;39.59;27.27;99251.84;1714664;81;21211;-68
2022/07/01 06:18:14;;;;;;;3.92;3.72;;;;;;;39.70;27.25;99257.08;1721627;83;20873;-69
2022/07/01 06:20:41;;;;;;;4.47;4.05;;;;;;;39.76;27.04;99271.50;1720513;81;21016;-68
2022/07/01 06:23:07;;;;;;;4.80;4.28;;;;;;;39.23;27.30;99260.64;1715631;81;21011;-69
2022/07/01 06:25:34;;;;;;;4.08;3.77;;;;;;;38.95;27.78;99262.78;1725552;81;20947;-68
2022/07/01 06:28:00;;;;;;;4.50;4.12;;;;;;;38.91;27.96;99264.08;1698940;83;21245;-67
2022/07/01 06:30:27;;;;;;;4.58;4.17;;;;;;;38.96;28.14;99256.84;1714692;83;20940;-67
2022/07/01 06:32:53;;;;;;;4.45;4.12;;;;;;;38.70;28.70;99249.08;1714117;81;21059;-70
2022/07/01 06:35:20;;;;;;;4.28;3.98;;;;;;;38.63;28.60;99244.76;1715896;81;20975;-68
2022/07/01 06:37:48;;;;;;;4.72;4.17;;;;;;;38.68;28.62;99256.98;1705067;82;21551;-69
2022/07/01 06:40:15;;;;;;;4.37;4.08;;;;;;;39.11;28.20;99263.55;1715228;83;21046;-69
2022/07/01 06:42:42;;;;;;;3.85;3.65;;;;;;;39.64;27.67;99259.93;1708556;82;21002;-69
2022/07/01 06:45:09;;;;;;;4.03;3.83;;;;;;;40.29;26.32;99264.12;1726216;81;20944;-69
2022/07/01 06:47:36;;;;;;;4.05;3.75;;;;;;;40.04;26.16;99270.63;1718697;83;21048;-69
2022/07/01 06:50:04;;;;;;;3.87;3.47;;;;;;;39.80;26.24;99264.01;1719895;81;20999;-69
2022/07/01 06:52:31;;;;;;;3.70;3.40;;;;;;;39.69;26.09;99258.81;1686882;81;21195;-69
2022/07/01 06:54:58;;;;;;;3.67;3.37;;;;;;;39.46;26.50;99259.55;1721166;81;21032;-68
2022/07/01 06:57:25;;;;;;;3.90;3.17;;;;;;;39.47;26.23;99257.58;1711708;83;21054;-71
2022/07/01 06:59:51;;;;;;;3.60;3.33;;;;;;;39.16;26.61;99266.81;1702734;82;21019;-68
2022/07/01 07:02:17;;;;;;;3.33;3.12;;;;;;;39.15;26.84;99267.20;1724739;81;21188;-70
2022/07/01 07:04:44;;;;;;;3.25;3.05;;;;;;;39.31;26.37;99257.66;1718995;81;21248;-72
2022/07/01 07:07:11;;;;;;;3.40;3.20;;;;;;;39.48;26.01;99266.12;1757666;81;20898;-66
2022/07/01 07:09:37;;;;;;;3.30;3.08;;;;;;;39.85;25.56;99260.92;1736997;81;21000;-66
2022/07/01 07:12:05;;;;;;;3.30;3.10;;;;;;;39.87;25.46;99264.95;1757347;80;20926;-67
2022/07/01 07:14:32;;;;;;;5.00;3.30;;;;;;;39.90;25.34;99263.40;1757837;81;20950;-66
2022/07/01 07:16:58;;;;;;;2.98;2.77;;;;;;;39.88;25.40;99264.36;1741850;81;22325;-66
2022/07/01 07:19:25;;;;;;;3.00;2.80;;;;;;;39.73;25.19;99276.41;1756388;80;21744;-67
2022/07/01 07:21:51;;;;;;;3.17;2.87;;;;;;;39.45;25.49;99264.89;1756838;80;21025;-65
2022/07/01 07:24:18;;;;;;;3.98;2.85;;;;;;;39.67;25.55;99263.38;1757786;81;20986;-66
2022/07/01 07:26:45;;;;;;;3.85;3.65;;;;;;;39.85;25.16;99260.34;1749553;80;20945;-67
2022/07/01 07:30:48;;;;;;;4.50;3.60;;;;;;;39.74;25.73;99264.08;1816380;77;22780;-71
2022/07/01 07:33:14;;;;;;;3.40;3.20;;;;;;;39.95;25.22;99264.48;1784940;80;20972;-68
2022/07/01 07:35:41;;;;;;;3.65;3.35;;;;;;;39.96;24.72;99267.50;1768302;79;21136;-65
2022/07/01 07:38:08;;;;;;;4.55;3.17;;;;;;;40.30;25.01;99258.77;1761905;80;20875;-67
2022/07/01 07:40:35;;;;;;;3.35;3.10;;;;;;;40.83;24.36;99249.27;1754134;79;20890;-67
2022/07/01 07:43:03;;;;;;;3.70;3.40;;;;;;;41.16;23.60;99263.34;1748878;79;21348;-67
2022/07/01 07:45:30;;;;;;;3.02;2.83;;;;;;;41.45;23.31;99262.33;1764886;79;20898;-67
2022/07/01 07:47:56;;;;;;;3.12;2.92;;;;;;;41.71;23.09;99260.84;1748802;80;21240;-69
2022/07/01 07:50:23;;;;;;;3.33;3.12;;;;;;;41.91;22.86;99258.08;1778876;80;20883;-70
2022/07/01 07:52:50;;;;;;;3.20;3.00;;;;;;;42.58;22.41;99255.14;1790462;79;20958;-69
2022/07/01 07:55:16;;;;;;;3.20;3.00;;;;;;;43.39;21.40;99256.44;1790651;80;20915;-67
2022/07/01 07:57:44;;;;;;;3.10;2.90;;;;;;;43.35;21.10;99252.02;1766971;79;20882;-68
2022/07/01 08:00:12;;;;;;;3.30;3.00;;;;;;;43.31;21.22;99256.79;1749726;80;21237;-69
2022/07/01 08:02:40;;;;;;;3.20;3.05;;;;;;;43.45;21.04;99254.06;1767947;79;21471;-67
2022/07/01 08:05:08;;;;;;;2.83;2.72;;;;;;;43.31;20.77;99251.97;1775713;80;20932;-69
2022/07/01 08:07:42;;;;;;;3.37;2.98;;;;;;;43.57;21.08;99256.48;1776502;80;20960;-68
2022/07/01 08:10:11;;;;;;;3.70;3.35;;;;;;;44.06;20.38;99255.25;1764158;80;21077;-70
2022/07/01 08:12:37;;;;;;;3.37;2.90;;;;;;;43.86;20.14;99251.20;1777738;79;21449;-70
2022/07/01 08:15:06;;;;;;;5.28;3.27;;;;;;;43.73;20.41;99247.76;1752257;80;20996;-68
2022/07/01 08:17:32;;;;;;;3.15;2.95;;;;;;;43.85;19.84;99242.61;1779560;79;21589;-68
2022/07/01 08:19:59;;;;;;;3.50;3.30;;;;;;;43.96;20.22;99249.62;1780454;80;20997;-68
2022/07/01 08:22:26;;;;;;;3.10;2.77;;;;;;;43.90;20.50;99244.20;1780385;79;20946;-66
2022/07/01 08:24:52;;;;;;;3.30;3.10;;;;;;;44.28;19.86;99242.05;1784649;79;21147;-67
2022/07/01 08:27:19;;;;;;;4.33;3.50;;;;;;;44.72;18.98;99242.44;1786947;80;21006;-69
2022/07/01 08:29:45;;;;;;;2.60;2.40;;;;;;;44.94;18.57;99239.02;1758716;80;21533;-68
2022/07/01 08:32:12;;;;;;;4.28;2.85;;;;;;;44.89;17.85;99242.24;1764961;80;21595;-67
2022/07/01 08:34:40;;;;;;;2.75;2.45;;;;;;;44.69;18.45;99246.05;1756726;80;21032;-68
2022/07/01 08:37:06;;;;;;;3.27;2.98;;;;;;;44.81;18.34;99247.64;1782733;80;21211;-66
2022/07/01 08:39:33;;;;;;;2.52;2.33;;;;;;;44.89;18.63;99242.24;1740401;82;20939;-66
2022/07/01 08:41:59;;;;;;;2.83;2.60;;;;;;;45.15;18.51;99246.56;1742214;81;21034;-72
2022/07/01 08:44:26;;;;;;;2.60;2.40;;;;;;;45.13;18.02;99246.98;1747409;81;20978;-73
2022/07/01 08:46:52;;;;;;;5.75;2.65;;;;;;;45.17;17.73;99248.36;1742098;82;20935;-67
2022/07/01 08:49:19;;;;;;;4.85;2.80;;;;;;;44.96;17.97;99252.63;1721664;81;21222;-69
2022/07/01 08:51:46;;;;;;;2.90;2.70;;;;;;;44.96;18.23;99235.80;1720084;80;20883;-68
2022/07/01 08:54:12;;;;;;;3.83;2.52;;;;;;;45.41;18.04;99246.68;1742864;82;20962;-69
2022/07/01 08:56:41;;;;;;;2.62;2.47;;;;;;;45.58;17.87;99239.56;1742484;82;21017;-68
2022/07/01 08:59:11;;;;;;;3.72;3.50;;;;;;;45.61;17.14;99242.95;1742765;82;20978;-68
2022/07/01 09:01:38;;;;;;;3.80;2.98;;;;;;;45.74;17.45;99241.30;1742628;81;21242;-68
2022/07/01 09:04:19;;;;;;;2.70;2.50;;;;;;;45.87;16.90;99236.80;1742919;82;20899;-67
2022/07/01 09:06:47;;;;;;;2.40;2.30;;;;;;;45.57;17.43;99232.36;1742515;82;20918;-67
2022/07/01 09:09:20;;;;;;;2.62;2.40;;;;;;;45.57;17.20;99228.15;1742562;81;20907;-68
2022/07/01 09:11:54;;;;;;;2.80;2.60;;;;;;;45.91;16.98;99216.52;1742761;81;20923;-67
2022/07/01 09:14:25;;;;;;;3.08;2.87;;;;;;;46.40;16.81;99225.20;1766699;80;21886;-69
2022/07/01 09:16:55;;;;;;;3.77;3.20;;;;;;;46.28;17.08;99221.44;1751172;80;20965;-69
2022/07/01 09:19:22;;;;;;;3.10;2.42;;;;;;;45.82;17.52;99226.00;1751407;80;21028;-69
2022/07/01 09:21:50;;;;;;;2.62;2.52;;;;;;;45.71;17.42;99210.45;1751406;80;21540;-67
2022/07/01 09:24:39;;;;;;;5.30;2.40;;;;;;;45.62;17.52;99224.94;1763691;80;20876;-67
2022/07/01 09:27:13;;;;;;;2.77;2.60;;;;;;;44.84;17.82;99224.39;1755817;80;21051;-68
2022/07/01 09:29:52;;;;;;;3.87;2.55;;;;;;;43.99;18.40;99229.19;1751239;80;21009;-67
2022/07/01 09:32:21;;;;;;;2.62;2.50;;;;;;;44.03;18.87;99219.61;1751380;80;20887;-68
2022/07/01 09:34:52;;;;;;;2.30;2.10;;;;;;;44.69;18.15;99224.23;1773131;80;20913;-67
2022/07/01 09:37:21;;;;;;;2.85;2.58;;;;;;;44.33;17.44;99226.83;1751391;80;21559;-68
2022/07/01 09:39:50;;;;;;;2.62;2.40;;;;;;;42.54;19.30;99229.13;1751434;80;21135;-65
2022/07/01 09:42:18;;;;;;;3.62;2.83;;;;;;;41.04;21.23;99230.08;1751322;80;20846;-67
2022/07/01 09:45:06;;;;;;;2.42;2.22;;;;;;;41.41;21.51;99216.81;1751255;80;20886;-69
2022/07/01 09:47:34;;;;;;;2.87;2.67;;;;;;;42.59;20.03;99234.36;1769022;80;20927;-70
2022/07/01 09:50:02;;;;;;;4.08;2.33;;;;;;;43.12;18.94;99222.11;1754833;80;20973;-68
2022/07/01 09:52:29;;;;;;;2.05;1.95;;;;;;;43.86;18.02;99220.97;1751341;80;21232;-68
2022/07/01 09:54:55;;;;;;;2.85;2.37;;;;;;;44.66;17.66;99217.43;1751321;80;20985;-68
2022/07/01 09:57:22;;;;;;;2.00;1.90;;;;;;;45.44;16.67;99216.38;1751764;80;21015;-69
2022/07/01 09:59:51;;;;;;;2.42;2.25;;;;;;;45.92;15.81;99209.67;1751280;80;20977;-68
2022/07/01 10:02:21;;;;;;;5.60;2.10;;;;;;;46.27;15.75;99206.41;1751521;80;21392;-68
2022/07/01 10:04:52;;;;;;;3.67;2.90;;;;;;;45.75;16.42;99208.40;1751359;80;21130;-69
2022/07/01 10:07:30;;;;;;;2.65;2.10;;;;;;;45.09;16.71;99206.08;1760611;80;21010;-67
2022/07/01 10:10:03;;;;;;;3.72;2.20;;;;;;;44.25;17.40;99211.23;1761180;80;21451;-67
2022/07/01 10:12:45;;;;;;;2.50;2.30;;;;;;;42.99;18.86;99218.86;1760084;80;21492;-68
2022/07/01 10:15:11;;;;;;;2.50;2.30;;;;;;;41.54;20.77;99213.97;1751356;80;21476;-68
2022/07/01 10:17:46;;;;;;;3.30;2.27;;;;;;;40.31;22.08;99219.38;1762581;80;20919;-70
2022/07/01 10:20:16;;;;;;;2.50;2.30;;;;;;;39.36;22.17;99225.95;1765156;80;20884;-69
2022/07/01 10:22:46;;;;;;;2.35;2.15;;;;;;;38.41;23.05;99220.39;1742635;82;20920;-68
2022/07/01 10:25:43;;;;;;;2.70;2.50;;;;;;;37.92;23.67;99224.67;1742552;81;20970;-68
2022/07/01 10:28:20;;;;;;;2.47;2.10;;;;;;;37.38;24.11;99221.56;1767317;80;21016;-69
2022/07/01 10:31:01;;;;;;;2.40;2.20;;;;;;;36.79;24.04;99223.55;1756168;80;21837;-68
2022/07/01 10:33:34;;;;;;;2.30;2.08;;;;;;;36.32;24.66;99219.06;1770888;79;20890;-68
2022/07/01 10:36:23;;;;;;;2.55;2.35;;;;;;;35.95;25.14;99222.94;1773131;80;20931;-69
2022/07/01 10:39:10;;;;;;;2.12;2.02;;;;;;;35.69;25.75;99232.10;1766301;80;20923;-67
2022/07/01 10:42:00;;;;;;;2.30;2.10;;;;;;;35.32;26.50;99220.06;1760063;80;20907;-67
2022/07/01 10:44:27;;;;;;;2.47;2.33;;;;;;;35.19;26.85;99209.53;1760936;80;21243;-70
2022/07/01 10:46:58;;;;;;;2.72;2.20;;;;;;;35.17;26.35;99209.64;1760428;80;20973;-67
2022/07/01 10:49:47;;;;;;;2.00;1.80;;;;;;;35.08;26.15;99201.98;1750767;80;20981;-68
2022/07/01 10:52:21;;;;;;;2.33;2.10;;;;;;;35.02;26.94;99203.28;1759159;80;20854;-68
2022/07/01 10:54:52;;;;;;;3.37;3.08;;;;;;;34.99;27.31;99202.61;1749927;80;20922;-68
2022/07/01 10:57:29;;;;;;;3.85;2.45;;;;;;;34.95;27.76;99203.03;1763420;80;21186;-68
2022/07/01 11:00:04;;;;;;;3.22;2.50;;;;;;;34.85;27.87;99200.67;1765056;80;20915;-68
2022/07/01 11:02:37;;;;;;;2.65;2.45;;;;;;;34.83;27.43;99195.50;1751184;80;20882;-69
2022/07/01 11:05:11;;;;;;;2.58;2.37;;;;;;;34.81;28.12;99195.00;1750877;80;20878;-67
2022/07/01 11:07:48;;;;;;;3.05;2.12;;;;;;;34.60;28.33;99198.31;1756883;80;20937;-71
2022/07/01 11:10:16;;;;;;;2.25;2.05;;;;;;;34.34;28.43;99194.30;1777227;80;21420;-68
2022/07/01 11:12:46;;;;;;;2.50;2.30;;;;;;;34.13;28.78;99183.20;1781369;80;20923;-71
2022/07/01 11:15:13;;;;;;;3.08;2.10;;;;;;;34.03;29.31;99179.41;1780569;80;20911;-69
2022/07/01 11:17:48;;;;;;;5.28;2.45;;;;;;;34.00;29.90;99184.77;1755746;80;20955;-69
2022/07/01 11:20:14;;;;;;;3.30;2.45;;;;;;;33.93;30.40;99185.86;1759301;80;20885;-69
2022/07/01 11:22:41;;;;;;;4.55;2.37;;;;;;;33.96;29.69;99183.83;1757984;80;21134;-69
2022/07/01 11:25:10;;;;;;;4.37;2.47;;;;;;;34.04;29.17;99187.13;1755123;80;20846;-67
2022/07/01 11:27:37;;;;;;;2.10;2.00;;;;;;;34.01;28.34;99189.16;1774121;80;20934;-69
2022/07/01 11:30:09;;;;;;;1.60;1.50;;;;;;;33.89;28.08;99190.44;1741117;82;21073;-68
2022/07/01 11:32:38;;;;;;;2.85;1.92;;;;;;;33.70;26.90;99183.11;1752745;80;20903;-70
2022/07/01 11:40:35;;;;;;;2.60;1.80;;;;;;;33.77;27.99;99183.40;1759008;80;20927;-71
2022/07/01 11:43:02;;;;;;;21.55;2.98;;;;;;;33.81;27.94;99179.67;1769339;80;20990;-69
2022/07/01 11:45:29;;;;;;;2.10;1.90;;;;;;;33.75;28.47;99175.47;1761432;79;20907;-71
2022/07/01 11:47:55;;;;;;;5.72;2.12;;;;;;;33.73;28.05;99167.28;1765149;79;21225;-73
2022/07/01 11:50:22;;;;;;;1.90;1.80;;;;;;;33.68;28.31;99167.46;1748086;80;20919;-68
2022/07/01 11:52:49;;;;;;;3.95;1.80;;;;;;;33.66;28.12;99166.98;1750234;80;20950;-68
2022/07/01 11:55:18;;;;;;;2.47;1.95;;;;;;;33.63;28.10;99168.45;1780795;79;20994;-68